< < Back
Terminal Aerodrome Forecast


Current Version              Previous Versions:   1  2  3  4  5  6  7  8  9  

Terminal Aerodrome Forecast

681
FTUS42 KCHS 030028 AAA
TAFSAV
TAF AMD
KSAV 030028Z 0300/0324 24010G16KT P6SM SHRA SCT040 BKN070
     FM030200 24007KT P6SM BKN050
     FM031600 25010G16KT P6SM FEW050 BKN080
     FM032000 23011G18KT P6SM VCTS BKN035CB=



Latest METAR

851
SAUS80 KWBC 032200
MTRSAV
METAR KSAV 032153Z 33004KT 10SM FEW070 BKN250 32/21 A3000 RMK AO2 SLP158
T03220206


USA.gov is the U.S. government's official web portal to all federal, state and local government web resources and services.